Time;durP1;ratioP1;P1;durP2;ratioP2;P2;SDS_P1;SDS_P2;PMS_P1;PMS_P2;Temp;Humidity;BMP_temperature;BMP_pressure;BME280_temperature;BME280_humidity;BME280_pressure;Samples;Min_cycle;Max_cycle;Signal;HPM_P1;HPM_P2
2021/09/15 00:01:31;;;;;;;14.67;9.27;;;15.80;99.90;;;;;;5060422;28;20858;-84
2021/09/15 00:03:58;;;;;;;9.53;8.53;;;15.90;99.90;;;;;;5062504;28;20469;-84
2021/09/15 00:06:26;;;;;;;10.40;8.50;;;15.90;99.90;;;;;;5064911;28;20438;-80
2021/09/15 00:08:52;;;;;;;9.87;8.50;;;15.70;99.90;;;;;;5078734;28;20422;-81
2021/09/15 00:11:19;;;;;;;11.03;9.53;;;15.90;99.90;;;;;;5071256;28;20442;-84
2021/09/15 00:13:46;;;;;;;9.57;8.60;;;15.80;99.90;;;;;;5099111;23;20537;-87
2021/09/15 00:16:14;;;;;;;10.47;9.00;;;15.90;99.90;;;;;;5079088;28;20426;-90
2021/09/15 00:18:42;;;;;;;9.50;8.70;;;;;;;;;;5078828;28;20484;-89
2021/09/15 00:21:08;;;;;;;9.03;8.20;;;15.80;99.90;;;;;;5078959;28;20426;-90
2021/09/15 00:23:36;;;;;;;10.77;9.67;;;15.70;99.90;;;;;;5076084;28;20423;-90
2021/09/15 00:26:03;;;;;;;12.60;9.73;;;15.80;99.90;;;;;;5057968;28;20460;-87
2021/09/15 00:28:29;;;;;;;12.70;10.10;;;15.80;99.90;;;;;;5047784;28;20926;-87
2021/09/15 00:30:56;;;;;;;12.30;10.00;;;15.80;99.90;;;;;;5041968;28;20512;-87
2021/09/15 00:33:23;;;;;;;11.63;9.50;;;15.80;99.90;;;;;;5040798;28;20455;-87
2021/09/15 00:35:50;;;;;;;10.73;9.63;;;15.80;99.90;;;;;;5040654;28;20454;-88
2021/09/15 00:38:16;;;;;;;14.03;9.33;;;15.80;99.90;;;;;;5040511;28;20528;-87
2021/09/15 00:40:44;;;;;;;11.70;8.30;;;15.70;99.90;;;;;;5040082;28;20451;-88
2021/09/15 00:43:11;;;;;;;11.63;9.80;;;15.60;99.90;;;;;;5039410;28;20458;-87
2021/09/15 00:45:37;;;;;;;10.23;9.23;;;15.70;99.90;;;;;;5044693;28;20845;-87
2021/09/15 00:48:05;;;;;;;10.20;8.60;;;15.70;99.90;;;;;;5041656;28;20443;-87
2021/09/15 00:50:31;;;;;;;11.30;10.13;;;15.60;99.90;;;;;;5040146;28;20475;-87
2021/09/15 00:53:02;;;;;;;10.70;9.67;;;15.60;99.90;;;;;;5039294;28;20451;-88
2021/09/15 00:55:30;;;;;;;10.70;9.27;;;15.60;99.90;;;;;;5040065;28;20479;-87
2021/09/15 00:57:58;;;;;;;11.03;9.93;;;15.60;99.90;;;;;;5040516;28;20451;-87
2021/09/15 01:00:25;;;;;;;10.43;9.33;;;15.50;99.90;;;;;;5040018;28;20531;-87
2021/09/15 01:02:51;;;;;;;10.77;9.80;;;15.50;99.90;;;;;;5040014;28;20447;-87
2021/09/15 01:05:18;;;;;;;12.33;10.27;;;15.50;99.90;;;;;;5039772;28;20466;-87
2021/09/15 01:07:45;;;;;;;10.53;9.37;;;15.50;99.90;;;;;;5044302;28;20459;-88
2021/09/15 01:10:13;;;;;;;16.10;9.80;;;15.50;99.90;;;;;;5039279;28;20443;-88
2021/09/15 01:12:40;;;;;;;10.30;9.20;;;15.50;99.90;;;;;;5040065;28;20459;-87
2021/09/15 01:15:10;;;;;;;11.53;10.33;;;15.50;99.90;;;;;;5041193;28;20969;-87
2021/09/15 01:17:36;;;;;;;11.10;10.00;;;15.50;99.90;;;;;;5042180;28;20447;-87
2021/09/15 01:20:04;;;;;;;10.53;9.53;;;15.50;99.90;;;;;;5043935;28;20485;-87
2021/09/15 01:22:32;;;;;;;10.43;9.23;;;15.60;99.90;;;;;;5043357;28;20453;-87
2021/09/15 01:24:59;;;;;;;10.40;9.37;;;15.50;99.90;;;;;;5042238;28;20475;-88
2021/09/15 01:27:26;;;;;;;10.80;9.80;;;15.50;99.90;;;;;;5042369;28;20451;-87
2021/09/15 01:29:52;;;;;;;15.13;10.30;;;15.50;99.90;;;;;;5043886;28;20513;-87
2021/09/15 01:32:19;;;;;;;11.37;9.57;;;15.40;99.90;;;;;;5043395;28;20505;-87
2021/09/15 01:34:48;;;;;;;11.60;10.40;;;15.40;99.90;;;;;;5057130;28;20454;-89
2021/09/15 01:37:16;;;;;;;11.50;10.30;;;15.30;99.90;;;;;;5062122;28;20446;-89
2021/09/15 01:39:45;;;;;;;12.00;10.67;;;15.40;99.90;;;;;;5046476;28;20463;-87
2021/09/15 01:42:11;;;;;;;12.27;10.40;;;15.50;99.90;;;;;;5056128;28;20430;-88
2021/09/15 01:44:41;;;;;;;11.77;10.73;;;15.50;99.90;;;;;;5061580;28;20447;-89
2021/09/15 01:47:10;;;;;;;11.33;10.23;;;15.50;99.90;;;;;;5051339;28;20436;-88
2021/09/15 01:49:38;;;;;;;12.50;10.93;;;15.50;99.90;;;;;;5048706;28;20443;-87
2021/09/15 01:52:07;;;;;;;12.67;10.87;;;15.30;99.90;;;;;;5055240;28;20447;-87
2021/09/15 01:54:35;;;;;;;12.10;10.87;;;15.40;99.90;;;;;;5054563;28;20590;-87
2021/09/15 01:57:04;;;;;;;12.37;10.40;;;15.20;99.90;;;;;;5055839;28;20462;-88
2021/09/15 01:59:30;;;;;;;11.43;10.30;;;15.30;99.90;;;;;;5054915;28;20479;-86
2021/09/15 02:01:57;;;;;;;13.43;12.03;;;15.30;99.90;;;;;;5053047;28;20470;-87
2021/09/15 02:04:24;;;;;;;11.53;10.33;;;15.30;99.90;;;;;;5056126;28;20463;-87
2021/09/15 02:06:50;;;;;;;11.93;10.80;;;15.30;99.90;;;;;;5059803;28;20474;-87
2021/09/15 02:09:17;;;;;;;11.97;10.70;;;15.30;99.90;;;;;;5060711;28;20417;-87
2021/09/15 02:11:44;;;;;;;13.07;11.77;;;15.30;99.90;;;;;;5060976;28;20432;-88
2021/09/15 02:14:12;;;;;;;12.57;11.27;;;15.00;99.90;;;;;;5058274;28;20486;-87
2021/09/15 02:16:39;;;;;;;16.97;11.70;;;15.20;99.90;;;;;;5054549;28;20458;-87
2021/09/15 02:19:06;;;;;;;14.57;11.77;;;15.20;99.90;;;;;;5052756;28;20536;-87
2021/09/15 02:21:33;;;;;;;12.37;11.17;;;15.30;99.90;;;;;;5056197;28;20443;-88
2021/09/15 02:23:59;;;;;;;12.23;11.03;;;15.20;99.90;;;;;;5056859;28;20490;-87
2021/09/15 02:26:26;;;;;;;17.90;14.47;;;15.20;99.90;;;;;;5054290;28;20808;-88
2021/09/15 02:28:53;;;;;;;13.07;11.50;;;15.20;99.90;;;;;;5049036;28;20451;-87
2021/09/15 02:31:21;;;;;;;13.00;11.40;;;14.90;99.90;;;;;;5047748;28;20507;-87
2021/09/15 02:33:47;;;;;;;15.53;11.87;;;15.20;99.90;;;;;;5050122;28;20467;-87
2021/09/15 02:36:14;;;;;;;17.97;12.67;;;15.20;99.90;;;;;;5047606;28;20501;-87
2021/09/15 02:38:41;;;;;;;16.53;12.97;;;15.10;99.90;;;;;;5046257;28;20443;-87
2021/09/15 02:41:08;;;;;;;13.90;11.83;;;15.10;99.90;;;;;;5047640;28;20486;-87
2021/09/15 02:43:35;;;;;;;14.80;12.07;;;15.10;99.90;;;;;;5045679;28;20443;-87
2021/09/15 02:46:01;;;;;;;13.93;12.53;;;15.20;99.90;;;;;;5043235;28;20835;-87
2021/09/15 02:48:30;;;;;;;13.60;12.27;;;15.20;99.90;;;;;;5044854;28;20443;-88
2021/09/15 02:50:56;;;;;;;14.00;12.60;;;15.00;99.90;;;;;;5043852;28;21008;-87
2021/09/15 02:53:23;;;;;;;12.83;11.53;;;17.60;99.90;;;;;;5041026;28;20453;-87
2021/09/15 02:55:50;;;;;;;14.53;13.00;;;15.20;99.90;;;;;;5042857;28;20435;-88
2021/09/15 02:58:16;;;;;;;15.57;13.73;;;15.20;99.90;;;;;;5041827;28;20452;-87
2021/09/15 03:00:43;;;;;;;14.57;12.77;;;15.20;99.90;;;;;;5041092;28;20509;-88
2021/09/15 03:03:10;;;;;;;15.13;13.53;;;15.30;99.90;;;;;;5042098;28;20863;-87
2021/09/15 03:05:38;;;;;;;14.47;13.00;;;15.40;99.90;;;;;;5049698;28;20494;-87
2021/09/15 03:08:06;;;;;;;13.77;12.50;;;15.00;99.90;;;;;;5050931;28;20422;-87
2021/09/15 03:10:32;;;;;;;15.70;13.90;;;15.20;99.90;;;;;;5047102;28;20435;-87
2021/09/15 03:12:59;;;;;;;15.93;14.33;;;15.30;99.90;;;;;;5043492;28;20454;-87
2021/09/15 03:15:25;;;;;;;16.63;13.40;;;15.30;99.90;;;;;;5042402;28;20854;-87
2021/09/15 03:17:52;;;;;;;14.07;12.63;;;15.30;99.90;;;;;;5048049;28;20443;-87
2021/09/15 03:20:18;;;;;;;15.40;13.27;;;15.30;99.90;;;;;;5042715;28;20494;-87
2021/09/15 03:22:46;;;;;;;13.80;12.40;;;15.30;99.90;;;;;;5054322;28;20434;-88
2021/09/15 03:25:13;;;;;;;14.97;13.47;;;15.20;99.90;;;;;;5059555;28;20506;-88
2021/09/15 03:27:40;;;;;;;14.97;13.43;;;15.30;99.90;;;;;;5059391;28;20439;-88
2021/09/15 03:30:08;;;;;;;15.57;13.97;;;15.30;99.90;;;;;;5059565;28;20450;-88
2021/09/15 03:32:34;;;;;;;16.80;14.63;;;15.30;99.90;;;;;;5058775;28;20472;-89
2021/09/15 03:35:01;;;;;;;15.30;13.83;;;15.30;99.90;;;;;;5059769;28;20211;-87
2021/09/15 03:37:28;;;;;;;15.03;13.53;;;15.40;99.90;;;;;;5059379;28;20465;-88
2021/09/15 03:39:58;;;;;;;19.27;14.80;;;15.40;99.90;;;;;;5057344;28;20487;-87
2021/09/15 03:42:25;;;;;;;14.40;12.60;;;15.40;99.90;;;;;;5049780;28;20434;-87
2021/09/15 03:44:51;;;;;;;17.17;15.37;;;15.40;99.90;;;;;;5046853;28;20475;-88
2021/09/15 03:47:18;;;;;;;17.43;13.47;;;15.30;99.90;;;;;;5046929;28;20435;-87
2021/09/15 03:49:45;;;;;;;15.90;14.40;;;15.50;99.90;;;;;;5048445;28;20439;-87
2021/09/15 03:52:11;;;;;;;16.20;14.50;;;15.50;99.90;;;;;;5050325;28;20454;-87
2021/09/15 03:54:38;;;;;;;18.20;15.47;;;15.40;99.90;;;;;;5050798;28;20463;-87
2021/09/15 03:57:06;;;;;;;17.80;14.10;;;15.50;99.90;;;;;;5041899;28;20506;-87
2021/09/15 03:59:33;;;;;;;17.50;15.10;;;15.50;99.90;;;;;;5043006;28;20510;-87
2021/09/15 04:02:00;;;;;;;17.40;15.63;;;15.50;99.90;;;;;;5045660;28;20444;-88
2021/09/15 04:04:26;;;;;;;17.53;14.40;;;15.50;99.90;;;;;;5046152;28;20471;-87
2021/09/15 04:06:53;;;;;;;17.00;15.30;;;15.40;99.90;;;;;;5048832;28;20458;-86
2021/09/15 04:09:19;;;;;;;17.17;15.47;;;15.40;99.90;;;;;;5045129;28;20443;-87
2021/09/15 04:11:46;;;;;;;16.20;14.60;;;15.40;99.90;;;;;;5038016;28;20477;-87
2021/09/15 04:14:14;;;;;;;19.63;15.60;;;15.40;99.90;;;;;;5039569;28;20991;-87
2021/09/15 04:16:41;;;;;;;17.10;15.40;;;15.50;99.90;;;;;;5044020;28;20914;-89
2021/09/15 04:19:08;;;;;;;16.90;14.80;;;15.40;99.90;;;;;;5043489;28;20451;-89
2021/09/15 04:21:34;;;;;;;16.70;14.97;;;15.40;99.90;;;;;;5042178;28;20507;-87
2021/09/15 04:24:29;;;;;;;20.73;14.23;;;15.30;99.90;;;;;;5044668;28;20470;-89
2021/09/15 04:32:28;;;;;;;18.13;14.77;;;15.40;99.90;;;;;;5045303;28;20406;-87
2021/09/15 04:34:55;;;;;;;17.40;15.40;;;15.40;99.90;;;;;;5038376;28;21033;-86
2021/09/15 04:37:21;;;;;;;19.50;16.40;;;15.40;99.90;;;;;;5038605;28;20447;-87
2021/09/15 04:39:48;;;;;;;17.60;15.73;;;15.40;99.90;;;;;;5037640;28;20461;-87
2021/09/15 04:42:15;;;;;;;18.43;16.47;;;15.40;99.90;;;;;;5036220;28;20826;-87
2021/09/15 04:44:41;;;;;;;19.60;16.63;;;15.50;99.90;;;;;;5036906;28;20878;-88
2021/09/15 04:47:09;;;;;;;18.90;15.50;;;15.50;99.90;;;;;;5052726;28;20462;-87
2021/09/15 04:49:36;;;;;;;19.77;17.50;;;15.50;99.90;;;;;;5058515;28;20431;-87
2021/09/15 04:52:03;;;;;;;18.77;15.63;;;15.50;99.90;;;;;;5059535;28;20447;-85
2021/09/15 04:54:29;;;;;;;25.50;16.00;;;15.50;99.90;;;;;;5053591;28;20829;-87
2021/09/15 04:56:56;;;;;;;17.13;15.30;;;15.50;99.90;;;;;;5045897;28;20824;-87
2021/09/15 04:59:22;;;;;;;21.43;16.33;;;15.60;99.90;;;;;;5061791;28;20458;-87
2021/09/15 05:01:49;;;;;;;19.67;17.57;;;15.60;99.90;;;;;;5060941;28;20501;-87
2021/09/15 05:04:17;;;;;;;21.13;17.70;;;15.60;99.90;;;;;;5057670;28;20471;-87
2021/09/15 05:06:43;;;;;;;18.93;16.97;;;15.60;99.90;;;;;;5059307;28;20443;-87
2021/09/15 05:09:10;;;;;;;21.57;17.23;;;15.60;99.90;;;;;;5061924;28;20442;-87
2021/09/15 05:11:37;;;;;;;19.97;16.30;;;15.70;99.90;;;;;;5060893;28;20473;-87
2021/09/15 05:14:03;;;;;;;18.60;15.77;;;15.70;99.90;;;;;;5058551;28;20475;-87
2021/09/15 05:16:31;;;;;;;19.47;17.37;;;15.70;99.90;;;;;;5053742;28;20421;-87
2021/09/15 05:18:58;;;;;;;27.07;20.63;;;15.70;99.90;;;;;;5049222;28;20443;-86
2021/09/15 05:21:28;;;;;;;23.70;19.47;;;15.80;99.90;;;;;;5043860;28;20888;-87
2021/09/15 05:23:55;;;;;;;22.20;16.03;;;15.80;99.90;;;;;;5041609;28;20498;-87
2021/09/15 05:26:22;;;;;;;20.30;17.60;;;15.80;99.90;;;;;;5040305;28;20951;-87
2021/09/15 05:28:48;;;;;;;22.53;20.10;;;15.80;99.90;;;;;;5040882;28;20455;-87
2021/09/15 05:31:15;;;;;;;16.87;15.17;;;15.80;99.90;;;;;;5040312;28;20474;-87
2021/09/15 05:33:42;;;;;;;24.03;16.27;;;15.90;99.90;;;;;;5044644;28;20466;-88
2021/09/15 05:36:10;;;;;;;21.10;17.70;;;15.90;99.90;;;;;;5056746;28;20447;-88
2021/09/15 05:38:38;;;;;;;20.90;18.73;;;15.80;99.90;;;;;;5047374;28;20432;-87
2021/09/15 05:41:05;;;;;;;19.10;17.20;;;15.80;99.90;;;;;;5047774;28;21002;-87
2021/09/15 05:43:31;;;;;;;22.70;17.23;;;15.90;99.90;;;;;;5045787;28;20458;-87
2021/09/15 05:45:58;;;;;;;18.33;16.10;;;15.90;99.90;;;;;;5044416;28;20446;-88
2021/09/15 05:48:24;;;;;;;20.87;16.20;;;16.00;99.90;;;;;;5043302;28;20431;-88
2021/09/15 05:50:51;;;;;;;19.80;16.90;;;15.90;99.90;;;;;;5043231;28;20995;-87
2021/09/15 05:53:18;;;;;;;18.90;16.90;;;16.00;99.90;;;;;;5042890;28;20482;-88
2021/09/15 05:55:45;;;;;;;23.40;16.80;;;16.10;99.90;;;;;;5041869;28;21005;-87
2021/09/15 05:58:12;;;;;;;23.50;17.37;;;16.10;99.90;;;;;;5040593;28;20458;-87
2021/09/15 06:00:39;;;;;;;26.03;16.60;;;16.10;99.90;;;;;;5040809;28;20482;-87
2021/09/15 06:03:05;;;;;;;17.53;15.53;;;16.10;99.90;;;;;;5039239;28;20486;-87
2021/09/15 06:05:32;;;;;;;22.07;17.73;;;16.20;99.90;;;;;;5040207;28;20467;-87
2021/09/15 06:07:58;;;;;;;19.57;16.77;;;16.20;99.90;;;;;;5040536;28;20447;-87
2021/09/15 06:10:25;;;;;;;19.13;16.30;;;16.20;99.90;;;;;;5040147;28;20862;-87
2021/09/15 06:12:53;;;;;;;21.33;15.50;;;16.20;99.90;;;;;;5039943;28;20447;-87
2021/09/15 06:15:19;;;;;;;19.23;16.17;;;16.20;99.90;;;;;;5087196;23;20512;-84
2021/09/15 06:17:46;;;;;;;19.17;15.37;;;16.30;99.90;;;;;;5081636;28;20500;-84
2021/09/15 06:20:14;;;;;;;20.10;18.00;;;16.30;99.90;;;;;;5080220;28;20477;-83
2021/09/15 06:22:40;;;;;;;21.40;15.97;;;16.30;99.90;;;;;;5080927;28;20477;-83
2021/09/15 06:25:08;;;;;;;20.83;18.03;;;16.40;99.90;;;;;;5078400;28;20437;-83
2021/09/15 06:27:36;;;;;;;18.00;16.20;;;16.30;99.90;;;;;;5062230;28;20451;-81
2021/09/15 06:30:05;;;;;;;20.93;16.93;;;16.30;99.90;;;;;;5059532;28;20461;-81
2021/09/15 06:32:31;;;;;;;18.60;16.80;;;16.40;99.90;;;;;;5060556;28;20454;-82
2021/09/15 06:34:58;;;;;;;18.63;16.73;;;16.40;99.90;;;;;;5060901;28;20532;-82
2021/09/15 06:37:24;;;;;;;19.23;16.57;;;16.40;99.90;;;;;;5062075;28;20442;-82
2021/09/15 06:39:51;;;;;;;18.37;16.57;;;16.50;99.90;;;;;;5061031;28;20442;-83
2021/09/15 06:42:18;;;;;;;20.40;15.03;;;16.50;99.90;;;;;;5061998;28;20486;-83
2021/09/15 06:44:45;;;;;;;17.83;14.80;;;16.50;99.90;;;;;;5061229;28;21025;-83
2021/09/15 06:47:13;;;;;;;17.10;15.30;;;16.60;99.90;;;;;;5062008;28;20413;-83
2021/09/15 06:49:39;;;;;;;21.10;17.07;;;16.50;99.90;;;;;;5060929;28;20454;-83
2021/09/15 06:52:06;;;;;;;19.20;17.17;;;16.50;99.90;;;;;;5061565;28;20435;-83
2021/09/15 06:54:33;;;;;;;17.47;15.73;;;16.50;99.90;;;;;;5060838;28;20459;-83
2021/09/15 06:56:59;;;;;;;18.50;16.57;;;16.50;99.90;;;;;;5060798;28;20450;-85
2021/09/15 06:59:26;;;;;;;21.73;16.53;;;16.60;99.90;;;;;;5062293;28;20482;-82
2021/09/15 07:01:53;;;;;;;19.93;17.17;;;16.60;99.90;;;;;;5065353;28;20516;-83
2021/09/15 07:04:20;;;;;;;22.50;19.00;;;16.60;99.90;;;;;;5071077;28;20466;-81
2021/09/15 07:06:47;;;;;;;23.67;17.47;;;16.40;99.90;;;;;;5069677;28;21019;-84
2021/09/15 07:09:14;;;;;;;20.20;14.40;;;16.60;99.90;;;;;;5061807;28;20521;-82
2021/09/15 07:11:40;;;;;;;19.50;16.07;;;16.80;99.90;;;;;;5063204;28;20473;-84
2021/09/15 07:14:07;;;;;;;21.50;16.80;;;16.90;99.90;;;;;;5062011;28;20511;-81
2021/09/15 07:16:34;;;;;;;19.03;16.33;;;17.00;99.90;;;;;;5073982;28;20461;-81
2021/09/15 07:19:01;;;;;;;20.80;17.40;;;17.10;99.90;;;;;;5074522;28;20455;-81
2021/09/15 07:21:29;;;;;;;18.40;16.50;;;17.00;99.90;;;;;;5071516;28;21013;-84
2021/09/15 07:23:56;;;;;;;21.67;15.83;;;17.40;99.90;;;;;;5064125;28;20450;-82
2021/09/15 07:26:22;;;;;;;18.20;16.30;;;17.40;99.90;;;;;;5065191;28;20422;-84
2021/09/15 07:28:49;;;;;;;21.43;15.70;;;17.30;99.90;;;;;;5078823;28;20414;-83
2021/09/15 07:31:16;;;;;;;15.40;13.87;;;17.40;99.90;;;;;;5073249;28;20457;-83
2021/09/15 07:33:42;;;;;;;16.40;13.70;;;17.40;99.90;;;;;;5061804;28;20450;-84
2021/09/15 07:36:09;;;;;;;17.57;15.87;;;17.50;99.90;;;;;;5060487;28;20524;-83
2021/09/15 07:38:37;;;;;;;20.97;15.80;;;17.50;99.90;;;;;;5060581;28;20450;-83
2021/09/15 07:41:04;;;;;;;16.17;14.50;;;17.60;99.90;;;;;;5060625;28;21032;-83
2021/09/15 07:43:31;;;;;;;17.50;14.80;;;17.60;99.90;;;;;;5062179;28;20473;-83
2021/09/15 07:45:57;;;;;;;16.40;14.73;;;17.70;99.90;;;;;;5067580;28;20473;-82
2021/09/15 07:48:24;;;;;;;16.47;14.70;;;17.80;99.90;;;;;;5076781;28;20446;-83
2021/09/15 07:50:51;;;;;;;16.80;14.27;;;17.90;99.90;;;;;;5067171;28;20473;-83
2021/09/15 07:53:18;;;;;;;20.40;14.90;;;17.90;99.90;;;;;;5061326;28;20516;-83
2021/09/15 07:55:46;;;;;;;16.30;14.60;;;18.00;99.90;;;;;;5064456;28;20462;-83
2021/09/15 07:58:13;;;;;;;16.87;13.87;;;18.00;99.90;;;;;;5065963;28;20471;-83
2021/09/15 08:00:39;;;;;;;14.83;13.37;;;18.00;99.90;;;;;;5064676;28;20446;-83
2021/09/15 08:03:06;;;;;;;14.60;13.30;;;18.10;99.90;;;;;;5066722;28;20457;-84
2021/09/15 08:05:32;;;;;;;11.53;10.40;;;18.10;99.90;;;;;;5064234;28;20466;-84
2021/09/15 08:08:01;;;;;;;14.00;12.70;;;18.20;99.90;;;;;;5065753;28;20446;-83
2021/09/15 08:10:28;;;;;;;15.33;13.83;;;18.30;99.90;;;;;;5069797;28;20975;-81
2021/09/15 08:12:55;;;;;;;14.47;12.90;;;18.30;99.90;;;;;;5068127;28;20451;-82
2021/09/15 08:15:22;;;;;;;15.90;13.53;;;18.40;99.90;;;;;;5065881;28;20524;-82
2021/09/15 08:17:51;;;;;;;15.43;13.23;;;18.50;99.90;;;;;;5072509;28;20450;-82
2021/09/15 08:20:17;;;;;;;20.73;14.97;;;18.50;99.90;;;;;;5071690;28;20454;-82
2021/09/15 08:22:44;;;;;;;19.10;15.87;;;18.60;99.90;;;;;;5070224;28;20478;-82
2021/09/15 08:25:11;;;;;;;20.07;17.07;;;18.70;99.90;;;;;;5067146;28;20469;-83
2021/09/15 08:27:37;;;;;;;19.10;16.93;;;18.70;99.90;;;;;;5065952;28;20484;-82
2021/09/15 08:30:07;;;;;;;16.40;14.80;;;18.80;99.90;;;;;;5067389;28;20450;-81
2021/09/15 08:32:33;;;;;;;14.10;12.70;;;18.90;99.90;;;;;;5071926;28;20438;-82
2021/09/15 08:35:00;;;;;;;14.27;12.77;;;18.90;99.90;;;;;;5068976;28;20466;-83
2021/09/15 08:37:26;;;;;;;13.53;12.20;;;19.00;99.90;;;;;;5066145;28;20446;-83
2021/09/15 08:39:53;;;;;;;13.30;12.00;;;;;;;;;;5064069;28;20481;-84
2021/09/15 08:42:20;;;;;;;16.67;12.40;;;19.10;99.90;;;;;;5064100;28;20486;-84
2021/09/15 08:44:47;;;;;;;15.60;14.00;;;19.20;99.90;;;;;;5060547;28;20466;-84
2021/09/15 08:47:16;;;;;;;16.63;14.97;;;19.30;99.90;;;;;;5061214;28;20450;-83
2021/09/15 08:49:43;;;;;;;15.77;14.07;;;19.30;99.90;;;;;;5061343;28;20450;-84
2021/09/15 08:52:10;;;;;;;13.80;12.50;;;19.30;99.90;;;;;;5059859;28;20439;-84
2021/09/15 08:54:36;;;;;;;14.20;12.43;;;19.40;99.90;;;;;;5069802;28;20560;-83
2021/09/15 08:57:03;;;;;;;16.60;14.37;;;19.40;99.90;;;;;;5070413;28;20456;-83
2021/09/15 08:59:30;;;;;;;13.60;12.30;;;19.50;99.90;;;;;;5062456;28;20450;-83
2021/09/15 09:02:07;;;;;;;13.90;11.13;;;19.60;99.90;;;;;;5065886;28;20555;-83
2021/09/15 09:04:50;;;;;;;11.33;10.23;;;19.50;99.90;;;;;;5063032;28;20454;-84
2021/09/15 09:07:17;;;;;;;13.23;11.93;;;19.80;99.90;;;;;;5061794;28;20449;-84
2021/09/15 09:09:47;;;;;;;13.40;12.17;;;19.90;99.90;;;;;;5060200;28;20891;-84
2021/09/15 09:12:14;;;;;;;12.30;11.13;;;20.10;99.90;;;;;;5061325;28;20450;-83
2021/09/15 09:14:41;;;;;;;11.80;10.63;;;20.20;99.90;;;;;;5063830;28;20548;-82
2021/09/15 09:17:07;;;;;;;16.17;12.67;;;20.30;99.90;;;;;;5070498;28;20476;-82
2021/09/15 09:19:35;;;;;;;13.40;11.00;;;20.40;99.90;;;;;;5071297;28;20472;-82
2021/09/15 09:22:06;;;;;;;12.60;11.37;;;20.50;99.90;;;;;;5071464;28;20485;-82
2021/09/15 09:24:33;;;;;;;11.97;10.87;;;20.50;99.90;;;;;;5067857;28;20554;-84
2021/09/15 09:27:01;;;;;;;11.27;10.30;;;20.60;99.90;;;;;;5061555;28;20446;-82
2021/09/15 09:29:30;;;;;;;13.13;11.23;;;20.60;99.90;;;;;;5062337;28;20507;-82
2021/09/15 09:32:00;;;;;;;12.53;11.33;;;20.80;99.90;;;;;;5062394;28;20446;-82
2021/09/15 09:34:30;;;;;;;12.23;10.80;;;19.70;99.90;;;;;;5069985;28;20455;-82
2021/09/15 09:37:06;;;;;;;11.33;10.20;;;20.70;99.90;;;;;;5069763;28;20508;-83
2021/09/15 09:39:40;;;;;;;11.87;10.70;;;20.70;99.90;;;;;;5070256;28;20940;-83
2021/09/15 09:42:31;;;;;;;12.27;11.07;;;19.60;99.90;;;;;;5070044;28;20468;-83
2021/09/15 09:45:15;;;;;;;12.37;11.17;;;20.70;99.90;;;;;;5077353;28;20469;-81
2021/09/15 09:47:43;;;;;;;12.17;10.97;;;20.80;99.90;;;;;;5072880;28;20437;-85
2021/09/15 09:50:12;;;;;;;11.40;10.30;;;20.70;99.90;;;;;;5068766;28;20522;-85
2021/09/15 09:52:57;;;;;;;12.70;11.40;;;20.80;99.90;;;;;;5069987;28;20442;-84
2021/09/15 09:55:25;;;;;;;11.70;10.50;;;20.80;99.90;;;;;;5070174;28;20995;-83
2021/09/15 09:57:53;;;;;;;13.00;11.70;;;21.50;99.90;;;;;;5070168;28;20470;-84
2021/09/15 10:00:22;;;;;;;11.63;10.53;;;20.80;99.90;;;;;;5070931;28;20517;-83
2021/09/15 10:02:49;;;;;;;11.40;10.30;;;21.60;99.90;;;;;;5073255;28;20511;-83
2021/09/15 10:05:18;;;;;;;11.47;10.37;;;21.10;99.90;;;;;;5075250;28;20497;-83
2021/09/15 10:07:45;;;;;;;11.43;10.37;;;21.10;99.90;;;;;;5074994;28;20451;-82
2021/09/15 10:10:15;;;;;;;12.20;10.43;;;21.10;99.90;;;;;;5074886;28;20446;-83
2021/09/15 10:12:42;;;;;;;11.93;10.80;;;21.20;99.90;;;;;;5068794;28;20434;-83
2021/09/15 10:15:10;;;;;;;11.47;10.37;;;21.30;99.90;;;;;;5066935;28;20481;-84
2021/09/15 10:17:40;;;;;;;12.00;10.80;;;21.30;99.90;;;;;;5065536;28;20458;-83
2021/09/15 10:20:10;;;;;;;10.40;9.50;;;21.40;99.90;;;;;;5065900;28;20453;-84
2021/09/15 10:22:41;;;;;;;12.27;11.07;;;21.50;99.90;;;;;;5064788;28;20478;-82
2021/09/15 10:25:09;;;;;;;11.80;9.90;;;21.60;99.90;;;;;;5068136;28;20476;-82
2021/09/15 10:28:02;;;;;;;12.07;10.87;;;21.70;99.90;;;;;;5064571;28;20446;-84
2021/09/15 10:30:46;;;;;;;13.17;8.90;;;21.70;99.90;;;;;;5064579;28;20461;-83
2021/09/15 10:33:47;;;;;;;13.30;11.87;;;21.80;99.90;;;;;;5067332;28;20427;-84
2021/09/15 10:36:37;;;;;;;12.00;11.00;;;21.80;99.90;;;;;;5067211;28;20468;-82
2021/09/15 10:39:05;;;;;;;10.50;9.60;;;21.90;99.90;;;;;;5067195;28;20786;-83
2021/09/15 10:41:37;;;;;;;12.63;10.40;;;21.90;99.90;;;;;;5066321;28;20493;-84
2021/09/15 10:44:06;;;;;;;11.23;10.20;;;23.00;99.90;;;;;;5064288;28;20910;-85
2021/09/15 10:46:33;;;;;;;10.13;9.23;;;21.90;99.90;;;;;;5064305;28;20468;-83
2021/09/15 10:49:45;;;;;;;10.30;9.40;;;21.80;99.90;;;;;;5069417;28;20493;-83
2021/09/15 10:52:26;;;;;;;9.53;8.67;;;21.90;99.90;;;;;;5072468;28;20481;-83
2021/09/15 10:54:55;;;;;;;10.20;9.20;;;22.00;99.90;;;;;;5072528;28;20462;-82
2021/09/15 10:57:29;;;;;;;10.70;9.40;;;21.80;99.90;;;;;;5067284;28;20538;-83
2021/09/15 10:59:59;;;;;;;9.60;8.80;;;21.80;99.90;;;;;;5064746;28;20434;-83
2021/09/15 11:02:28;;;;;;;9.90;8.93;;;22.00;99.90;;;;;;5066167;28;20473;-83
2021/09/15 11:04:55;;;;;;;10.23;9.23;;;21.20;99.90;;;;;;5066033;28;20465;-84
2021/09/15 11:07:58;;;;;;;10.20;9.30;;;21.90;99.90;;;;;;5066040;28;20478;-84
2021/09/15 11:10:42;;;;;;;10.10;9.30;;;22.00;99.90;;;;;;5071922;28;20453;-83
2021/09/15 11:13:11;;;;;;;9.90;9.00;;;22.00;99.90;;;;;;5073784;28;20427;-83
2021/09/15 11:15:41;;;;;;;10.17;9.10;;;22.10;99.90;;;;;;5072739;28;20473;-82
2021/09/15 11:18:15;;;;;;;10.90;9.80;;;22.00;99.90;;;;;;5070096;28;20461;-83
2021/09/15 11:20:41;;;;;;;10.27;9.30;;;22.00;99.90;;;;;;5069053;28;20431;-83
2021/09/15 11:23:10;;;;;;;9.87;8.97;;;21.90;99.90;;;;;;5069089;28;20539;-84
2021/09/15 11:25:37;;;;;;;11.33;10.30;;;22.10;99.90;;;;;;5067345;28;20498;-83
2021/09/15 11:28:12;;;;;;;11.07;9.37;;;22.00;99.90;;;;;;5067044;28;20434;-83
2021/09/15 11:30:43;;;;;;;10.50;9.33;;;22.10;99.90;;;;;;5066700;28;20426;-82
2021/09/15 11:33:10;;;;;;;11.00;10.07;;;22.10;99.90;;;;;;5066702;28;20426;-83
2021/09/15 11:35:40;;;;;;;12.63;10.93;;;22.10;99.90;;;;;;5067140;28;20466;-83
2021/09/15 11:38:09;;;;;;;11.70;10.60;;;23.00;99.90;;;;;;5063237;28;20943;-83
2021/09/15 11:40:37;;;;;;;10.97;9.97;;;21.80;99.90;;;;;;5063426;28;20457;-83
2021/09/15 11:43:05;;;;;;;11.90;10.73;;;22.10;99.90;;;;;;5063383;28;20477;-82
2021/09/15 11:45:33;;;;;;;11.80;10.53;;;22.20;99.90;;;;;;5066678;28;20461;-84
2021/09/15 11:48:02;;;;;;;10.83;9.90;;;22.20;99.90;;;;;;5065155;28;20454;-83
2021/09/15 11:50:31;;;;;;;13.17;11.50;;;22.30;99.90;;;;;;5066022;28;20442;-84
2021/09/15 11:53:02;;;;;;;14.13;11.10;;;22.20;99.90;;;;;;5063503;28;20939;-84
2021/09/15 11:55:31;;;;;;;11.13;10.13;;;22.40;99.90;;;;;;5067936;28;20533;-83
2021/09/15 11:58:01;;;;;;;10.87;9.87;;;22.50;99.90;;;;;;5068660;28;20448;-83
2021/09/15 12:00:29;;;;;;;10.03;9.13;;;22.50;99.90;;;;;;5067337;28;20447;-83
2021/09/15 12:02:59;;;;;;;10.43;9.57;;;22.50;99.90;;;;;;5068646;28;20482;-82
2021/09/15 12:05:28;;;;;;;15.43;10.47;;;22.50;99.90;;;;;;5068683;28;20498;-83
2021/09/15 12:07:58;;;;;;;12.87;10.40;;;22.60;99.90;;;;;;5068197;28;20450;-82
2021/09/15 12:10:27;;;;;;;11.13;9.80;;;22.40;99.90;;;;;;5068188;28;20507;-83
2021/09/15 12:12:58;;;;;;;11.53;10.50;;;22.70;99.90;;;;;;5068147;28;20492;-84
2021/09/15 12:16:03;;;;;;;;;;;;;;;;;;;;;
2021/09/15 12:19:20;;;;;;;10.67;9.70;;;22.10;99.90;;;;;;5072107;28;20445;-86
2021/09/15 12:22:20;;;;;;;;;;;;;;;;;;;;;
2021/09/15 12:25:29;;;;;;;11.50;10.40;;;22.50;99.90;;;;;;5067956;28;20473;-86
2021/09/15 12:29:06;;;;;;;11.20;10.30;;;22.20;99.90;;;;;;5051699;28;20435;-86
2021/09/15 12:39:22;;;;;;;18.63;14.40;;;22.50;99.90;;;;;;4964990;28;20528;-85
2021/09/15 12:42:30;;;;;;;13.10;11.83;;;22.60;99.90;;;;;;4977311;28;20445;-86
2021/09/15 13:02:56;;;;;;;15.10;9.13;;;22.00;99.90;;;;;;5039262;28;20438;-87
2021/09/15 13:09:24;;;;;;;9.90;8.90;;;21.30;99.90;;;;;;5055227;28;20441;-86
2021/09/15 13:14:43;;;;;;;14.40;9.20;;;;;;;;;;5046584;28;20450;-85
2021/09/15 13:17:10;;;;;;;12.43;11.10;;;;;;;;;;5049738;28;20458;-86
2021/09/15 13:20:05;;;;;;;12.43;11.13;;;20.10;99.90;;;;;;5048928;28;20505;-85
2021/09/15 13:25:51;;;;;;;16.47;11.30;;;;;;;;;;5026574;28;20491;-86